sensor_id;sensor_type;location;lat;lon;timestamp;pressure;altitude;pressure_sealevel;temperature;humidity
19259;BME280;9763;48.780;9.212;2022-11-20T00:02:10;97887.50;;;9.91;77.99
19259;BME280;9763;48.780;9.212;2022-11-20T00:05:36;97884.19;;;9.89;77.91
19259;BME280;9763;48.780;9.212;2022-11-20T00:09:00;97884.69;;;9.81;77.99
19259;BME280;9763;48.780;9.212;2022-11-20T00:12:25;97889.59;;;9.86;78.06
19259;BME280;9763;48.780;9.212;2022-11-20T00:15:50;97888.78;;;9.85;78.79
19259;BME280;9763;48.780;9.212;2022-11-20T00:19:20;97894.81;;;9.86;78.32
19259;BME280;9763;48.780;9.212;2022-11-20T00:22:46;97891.28;;;9.87;79.01
19259;BME280;9763;48.780;9.212;2022-11-20T00:26:13;97896.28;;;9.90;79.06
19259;BME280;9763;48.780;9.212;2022-11-20T00:29:37;97892.38;;;9.95;78.33
19259;BME280;9763;48.780;9.212;2022-11-20T00:33:01;97887.06;;;9.97;78.58
19259;BME280;9763;48.780;9.212;2022-11-20T00:36:27;97888.75;;;9.98;78.58
19259;BME280;9763;48.780;9.212;2022-11-20T00:39:53;97855.00;;;9.84;78.55
19259;BME280;9763;48.780;9.212;2022-11-20T00:43:17;97883.06;;;10.04;79.28
19259;BME280;9763;48.780;9.212;2022-11-20T00:46:40;97873.25;;;10.07;79.18
19259;BME280;9763;48.780;9.212;2022-11-20T00:50:05;97870.66;;;10.07;79.13
19259;BME280;9763;48.780;9.212;2022-11-20T00:53:29;97882.97;;;10.18;79.54
19259;BME280;9763;48.780;9.212;2022-11-20T00:56:54;97884.41;;;10.22;79.64
19259;BME280;9763;48.780;9.212;2022-11-20T01:00:18;97884.88;;;10.27;79.26
19259;BME280;9763;48.780;9.212;2022-11-20T01:03:45;97884.78;;;10.29;79.11
19259;BME280;9763;48.780;9.212;2022-11-20T01:07:09;97893.22;;;10.32;79.50
19259;BME280;9763;48.780;9.212;2022-11-20T01:10:33;97859.38;;;10.20;79.59
19259;BME280;9763;48.780;9.212;2022-11-20T01:14:01;97879.75;;;10.38;79.71
19259;BME280;9763;48.780;9.212;2022-11-20T01:17:25;97868.91;;;10.32;80.04
19259;BME280;9763;48.780;9.212;2022-11-20T01:20:48;97884.63;;;10.43;80.45
19259;BME280;9763;48.780;9.212;2022-11-20T01:24:14;97891.88;;;10.51;80.33
19259;BME280;9763;48.780;9.212;2022-11-20T01:27:38;97903.03;;;10.53;79.77
19259;BME280;9763;48.780;9.212;2022-11-20T01:31:12;97903.78;;;10.55;80.46
19259;BME280;9763;48.780;9.212;2022-11-20T01:34:35;97905.44;;;10.56;80.63
19259;BME280;9763;48.780;9.212;2022-11-20T01:37:59;97907.94;;;10.57;79.78
19259;BME280;9763;48.780;9.212;2022-11-20T01:41:24;97910.34;;;10.60;80.41
19259;BME280;9763;48.780;9.212;2022-11-20T01:49:42;97902.94;;;10.54;79.83
19259;BME280;9763;48.780;9.212;2022-11-20T01:53:13;97904.22;;;10.49;78.92
19259;BME280;9763;48.780;9.212;2022-11-20T01:56:41;97903.94;;;10.40;78.59
19259;BME280;9763;48.780;9.212;2022-11-20T02:00:10;97902.09;;;10.30;78.69
19259;BME280;9763;48.780;9.212;2022-11-20T02:03:35;97897.66;;;10.19;78.84
19259;BME280;9763;48.780;9.212;2022-11-20T02:07:03;97892.97;;;10.11;78.98
19259;BME280;9763;48.780;9.212;2022-11-20T02:10:29;97894.34;;;10.04;78.61
19259;BME280;9763;48.780;9.212;2022-11-20T02:13:53;97901.44;;;10.02;79.09
19259;BME280;9763;48.780;9.212;2022-11-20T02:17:18;97876.47;;;9.87;78.82
19259;BME280;9763;48.780;9.212;2022-11-20T02:20:44;97906.22;;;10.08;79.95
19259;BME280;9763;48.780;9.212;2022-11-20T02:24:14;97906.94;;;10.10;79.46
19259;BME280;9763;48.780;9.212;2022-11-20T02:27:38;97906.59;;;10.15;80.20
19259;BME280;9763;48.780;9.212;2022-11-20T02:31:02;97903.31;;;10.13;79.74
19259;BME280;9763;48.780;9.212;2022-11-20T02:34:26;97900.34;;;10.18;79.57
19259;BME280;9763;48.780;9.212;2022-11-20T02:37:54;97899.03;;;10.12;79.40
19259;BME280;9763;48.780;9.212;2022-11-20T02:41:19;97905.91;;;10.13;79.90
19259;BME280;9763;48.780;9.212;2022-11-20T02:44:43;97908.63;;;10.11;79.38
19259;BME280;9763;48.780;9.212;2022-11-20T02:48:07;97894.84;;;10.09;79.62
19259;BME280;9763;48.780;9.212;2022-11-20T02:51:31;97898.69;;;10.17;80.06
19259;BME280;9763;48.780;9.212;2022-11-20T02:54:55;97900.91;;;10.23;79.86
19259;BME280;9763;48.780;9.212;2022-11-20T02:58:20;97886.28;;;10.20;79.50
19259;BME280;9763;48.780;9.212;2022-11-20T03:01:45;97901.06;;;10.32;80.12
19259;BME280;9763;48.780;9.212;2022-11-20T03:05:09;97901.44;;;10.39;79.45
19259;BME280;9763;48.780;9.212;2022-11-20T03:08:32;97907.38;;;10.41;79.54
19259;BME280;9763;48.780;9.212;2022-11-20T03:11:56;97907.25;;;10.42;80.02
19259;BME280;9763;48.780;9.212;2022-11-20T03:15:21;97906.22;;;10.45;80.07
19259;BME280;9763;48.780;9.212;2022-11-20T03:18:45;97901.00;;;10.45;79.70
19259;BME280;9763;48.780;9.212;2022-11-20T03:22:09;97901.38;;;10.52;80.00
19259;BME280;9763;48.780;9.212;2022-11-20T03:25:32;97892.84;;;10.50;79.53
19259;BME280;9763;48.780;9.212;2022-11-20T03:28:58;97877.94;;;10.39;79.45
19259;BME280;9763;48.780;9.212;2022-11-20T03:32:23;97886.41;;;10.42;79.85
19259;BME280;9763;48.780;9.212;2022-11-20T03:35:47;97885.19;;;10.35;79.92
19259;BME280;9763;48.780;9.212;2022-11-20T03:39:10;97886.06;;;10.23;80.09
19259;BME280;9763;48.780;9.212;2022-11-20T03:42:34;97887.66;;;10.13;79.45
19259;BME280;9763;48.780;9.212;2022-11-20T03:46:09;97882.47;;;10.00;79.56
19259;BME280;9763;48.780;9.212;2022-11-20T03:49:34;97887.50;;;9.91;79.73
19259;BME280;9763;48.780;9.212;2022-11-20T03:52:59;97881.88;;;9.84;79.77
19259;BME280;9763;48.780;9.212;2022-11-20T03:56:25;97878.16;;;9.75;80.47
19259;BME280;9763;48.780;9.212;2022-11-20T03:59:49;97879.63;;;9.67;79.85
19259;BME280;9763;48.780;9.212;2022-11-20T04:03:12;97870.69;;;9.58;79.81
19259;BME280;9763;48.780;9.212;2022-11-20T04:06:38;97879.16;;;9.49;80.31
19259;BME280;9763;48.780;9.212;2022-11-20T04:10:02;97881.31;;;9.43;79.95
19259;BME280;9763;48.780;9.212;2022-11-20T04:13:26;97884.34;;;9.36;80.50
19259;BME280;9763;48.780;9.212;2022-11-20T04:16:49;97881.13;;;9.33;80.47
19259;BME280;9763;48.780;9.212;2022-11-20T04:20:13;97874.88;;;9.35;80.97
19259;BME280;9763;48.780;9.212;2022-11-20T04:23:39;97876.34;;;9.39;81.00
19259;BME280;9763;48.780;9.212;2022-11-20T04:27:02;97877.56;;;9.47;80.98
19259;BME280;9763;48.780;9.212;2022-11-20T04:30:26;97873.94;;;9.49;80.65
19259;BME280;9763;48.780;9.212;2022-11-20T04:33:50;97861.84;;;9.48;80.60
19259;BME280;9763;48.780;9.212;2022-11-20T04:37:13;97868.41;;;9.54;80.92
19259;BME280;9763;48.780;9.212;2022-11-20T04:40:38;97871.72;;;9.56;80.85
19259;BME280;9763;48.780;9.212;2022-11-20T04:44:04;97868.91;;;9.59;80.70
19259;BME280;9763;48.780;9.212;2022-11-20T04:47:28;97873.09;;;9.61;80.33
19259;BME280;9763;48.780;9.212;2022-11-20T04:50:52;97868.50;;;9.65;80.42
19259;BME280;9763;48.780;9.212;2022-11-20T04:54:16;97860.88;;;9.62;80.49
19259;BME280;9763;48.780;9.212;2022-11-20T04:57:41;97871.50;;;9.71;80.69
19259;BME280;9763;48.780;9.212;2022-11-20T05:01:07;97866.28;;;9.71;80.51
19259;BME280;9763;48.780;9.212;2022-11-20T05:04:32;97868.78;;;9.73;80.94
19259;BME280;9763;48.780;9.212;2022-11-20T05:07:56;97871.88;;;9.78;80.33
19259;BME280;9763;48.780;9.212;2022-11-20T05:11:20;97869.91;;;9.82;80.37
19259;BME280;9763;48.780;9.212;2022-11-20T05:14:45;97872.28;;;9.85;80.25
19259;BME280;9763;48.780;9.212;2022-11-20T05:18:09;97855.44;;;9.78;80.72
19259;BME280;9763;48.780;9.212;2022-11-20T05:21:33;97850.81;;;9.81;80.30
19259;BME280;9763;48.780;9.212;2022-11-20T05:24:56;97858.81;;;9.91;80.61
19259;BME280;9763;48.780;9.212;2022-11-20T05:28:21;97860.47;;;9.92;80.20
19259;BME280;9763;48.780;9.212;2022-11-20T05:31:46;97862.16;;;9.93;81.09
19259;BME280;9763;48.780;9.212;2022-11-20T05:35:09;97860.59;;;9.90;80.54
19259;BME280;9763;48.780;9.212;2022-11-20T05:38:33;97871.16;;;9.89;80.74
19259;BME280;9763;48.780;9.212;2022-11-20T05:41:56;97863.72;;;9.95;80.71
19259;BME280;9763;48.780;9.212;2022-11-20T05:45:34;97867.88;;;9.98;81.26
19259;BME280;9763;48.780;9.212;2022-11-20T05:48:59;97863.41;;;10.00;81.16
19259;BME280;9763;48.780;9.212;2022-11-20T05:52:23;97849.75;;;9.96;81.04
19259;BME280;9763;48.780;9.212;2022-11-20T05:55:46;97864.81;;;10.04;80.84
19259;BME280;9763;48.780;9.212;2022-11-20T05:59:10;97868.16;;;10.06;80.92
19259;BME280;9763;48.780;9.212;2022-11-20T06:02:34;97864.50;;;10.08;80.53
19259;BME280;9763;48.780;9.212;2022-11-20T06:06:00;97865.13;;;10.12;80.59
19259;BME280;9763;48.780;9.212;2022-11-20T06:09:24;97866.66;;;10.15;80.42
19259;BME280;9763;48.780;9.212;2022-11-20T06:12:48;97870.94;;;10.16;80.90
19259;BME280;9763;48.780;9.212;2022-11-20T06:16:15;97870.25;;;10.14;80.40
19259;BME280;9763;48.780;9.212;2022-11-20T06:19:38;97872.69;;;10.15;80.21
19259;BME280;9763;48.780;9.212;2022-11-20T06:23:03;97869.25;;;10.15;80.53
19259;BME280;9763;48.780;9.212;2022-11-20T06:26:27;97867.38;;;10.17;80.68
19259;BME280;9763;48.780;9.212;2022-11-20T06:29:51;97852.94;;;10.13;80.91
19259;BME280;9763;48.780;9.212;2022-11-20T06:33:14;97860.63;;;10.14;80.17
19259;BME280;9763;48.780;9.212;2022-11-20T06:36:38;97853.75;;;10.13;80.29
19259;BME280;9763;48.780;9.212;2022-11-20T06:40:05;97850.41;;;10.11;81.16
19259;BME280;9763;48.780;9.212;2022-11-20T06:43:29;97850.75;;;10.06;80.41
19259;BME280;9763;48.780;9.212;2022-11-20T06:46:52;97853.69;;;10.02;80.55
19259;BME280;9763;48.780;9.212;2022-11-20T06:50:16;97856.41;;;10.00;80.75
19259;BME280;9763;48.780;9.212;2022-11-20T06:53:40;97856.41;;;10.00;80.85
19259;BME280;9763;48.780;9.212;2022-11-20T06:57:05;97852.88;;;10.01;80.89
19259;BME280;9763;48.780;9.212;2022-11-20T07:00:28;97860.69;;;10.01;81.06
19259;BME280;9763;48.780;9.212;2022-11-20T07:03:52;97866.84;;;10.00;80.93
19259;BME280;9763;48.780;9.212;2022-11-20T07:07:16;97868.63;;;10.00;80.58
19259;BME280;9763;48.780;9.212;2022-11-20T07:10:39;97871.22;;;10.00;81.40
19259;BME280;9763;48.780;9.212;2022-11-20T07:14:04;97877.25;;;10.00;81.29
19259;BME280;9763;48.780;9.212;2022-11-20T07:17:29;97871.81;;;10.03;80.94
19259;BME280;9763;48.780;9.212;2022-11-20T07:20:52;97873.16;;;10.09;81.11
19259;BME280;9763;48.780;9.212;2022-11-20T07:24:16;97878.91;;;10.14;81.14
19259;BME280;9763;48.780;9.212;2022-11-20T07:27:40;97878.47;;;10.20;81.29
19259;BME280;9763;48.780;9.212;2022-11-20T07:31:06;97880.75;;;10.25;82.07
19259;BME280;9763;48.780;9.212;2022-11-20T07:34:29;97877.59;;;10.32;81.52
19259;BME280;9763;48.780;9.212;2022-11-20T07:37:53;97882.22;;;10.40;81.56
19259;BME280;9763;48.780;9.212;2022-11-20T07:41:16;97885.25;;;10.46;81.73
19259;BME280;9763;48.780;9.212;2022-11-20T07:44:40;97889.06;;;10.54;81.08
19259;BME280;9763;48.780;9.212;2022-11-20T07:48:05;97884.44;;;10.57;81.00
19259;BME280;9763;48.780;9.212;2022-11-20T07:51:29;97884.59;;;10.67;81.58
19259;BME280;9763;48.780;9.212;2022-11-20T07:54:52;97882.13;;;10.76;81.35
19259;BME280;9763;48.780;9.212;2022-11-20T07:58:16;97891.78;;;10.87;81.15
19259;BME280;9763;48.780;9.212;2022-11-20T08:01:39;97891.56;;;10.90;81.36
19259;BME280;9763;48.780;9.212;2022-11-20T08:05:06;97892.16;;;10.94;81.71
19259;BME280;9763;48.780;9.212;2022-11-20T08:08:30;97898.59;;;11.01;80.92
19259;BME280;9763;48.780;9.212;2022-11-20T08:11:56;97900.88;;;11.05;81.40
19259;BME280;9763;48.780;9.212;2022-11-20T08:15:39;97898.13;;;11.07;80.83
19259;BME280;9763;48.780;9.212;2022-11-20T08:19:03;97904.19;;;11.07;80.72
19259;BME280;9763;48.780;9.212;2022-11-20T08:22:28;97905.25;;;11.05;81.09
19259;BME280;9763;48.780;9.212;2022-11-20T08:25:52;97909.53;;;11.06;80.63
19259;BME280;9763;48.780;9.212;2022-11-20T08:29:15;97900.88;;;11.05;80.95
19259;BME280;9763;48.780;9.212;2022-11-20T08:32:39;97917.63;;;11.14;81.16
19259;BME280;9763;48.780;9.212;2022-11-20T08:36:04;97914.06;;;11.15;80.93
19259;BME280;9763;48.780;9.212;2022-11-20T08:39:29;97909.56;;;11.17;81.39
19259;BME280;9763;48.780;9.212;2022-11-20T08:42:53;97919.53;;;11.23;81.24
19259;BME280;9763;48.780;9.212;2022-11-20T08:46:17;97906.34;;;11.25;81.54
19259;BME280;9763;48.780;9.212;2022-11-20T08:49:40;97914.19;;;11.25;80.92
19259;BME280;9763;48.780;9.212;2022-11-20T08:53:04;97910.28;;;11.30;81.47
19259;BME280;9763;48.780;9.212;2022-11-20T08:56:30;97914.59;;;11.42;81.34
19259;BME280;9763;48.780;9.212;2022-11-20T08:59:54;97906.63;;;11.66;81.38
19259;BME280;9763;48.780;9.212;2022-11-20T09:03:27;97913.69;;;11.77;81.56
19259;BME280;9763;48.780;9.212;2022-11-20T09:06:54;97915.13;;;11.81;81.37
19259;BME280;9763;48.780;9.212;2022-11-20T09:10:17;97917.84;;;11.79;81.33
19259;BME280;9763;48.780;9.212;2022-11-20T09:13:47;97914.50;;;11.77;80.78
19259;BME280;9763;48.780;9.212;2022-11-20T09:17:11;97923.63;;;11.72;80.57
19259;BME280;9763;48.780;9.212;2022-11-20T09:20:36;97923.38;;;11.75;80.88
19259;BME280;9763;48.780;9.212;2022-11-20T09:24:00;97925.91;;;11.76;80.67
19259;BME280;9763;48.780;9.212;2022-11-20T09:27:23;97927.59;;;11.77;80.16
19259;BME280;9763;48.780;9.212;2022-11-20T09:30:48;97929.38;;;11.77;80.49
19259;BME280;9763;48.780;9.212;2022-11-20T09:34:12;97937.81;;;11.80;81.07
19259;BME280;9763;48.780;9.212;2022-11-20T09:37:35;97928.19;;;11.81;80.40
19259;BME280;9763;48.780;9.212;2022-11-20T09:41:04;97934.72;;;11.75;81.05
19259;BME280;9763;48.780;9.212;2022-11-20T09:44:48;97955.06;;;11.83;80.70
19259;BME280;9763;48.780;9.212;2022-11-20T09:48:30;97937.81;;;11.80;81.03
19259;BME280;9763;48.780;9.212;2022-11-20T09:51:59;97951.84;;;11.79;80.93
19259;BME280;9763;48.780;9.212;2022-11-20T09:55:24;97931.16;;;11.76;80.57
19259;BME280;9763;48.780;9.212;2022-11-20T09:58:51;97947.53;;;11.89;80.97
19259;BME280;9763;48.780;9.212;2022-11-20T10:02:25;97947.78;;;11.98;80.92
19259;BME280;9763;48.780;9.212;2022-11-20T10:05:54;97924.84;;;11.90;80.16
19259;BME280;9763;48.780;9.212;2022-11-20T10:09:28;97937.31;;;11.98;80.35
19259;BME280;9763;48.780;9.212;2022-11-20T10:13:15;97933.41;;;11.92;80.48
19259;BME280;9763;48.780;9.212;2022-11-20T10:16:52;97938.53;;;11.82;79.50
19259;BME280;9763;48.780;9.212;2022-11-20T10:20:28;97953.94;;;11.74;80.10
19259;BME280;9763;48.780;9.212;2022-11-20T10:24:42;97952.63;;;11.69;79.70
19259;BME280;9763;48.780;9.212;2022-11-20T10:28:28;97959.63;;;11.57;80.07
19259;BME280;9763;48.780;9.212;2022-11-20T10:32:02;97965.78;;;11.45;80.58
19259;BME280;9763;48.780;9.212;2022-11-20T10:35:35;97974.66;;;11.31;80.56
19259;BME280;9763;48.780;9.212;2022-11-20T10:39:06;97982.69;;;11.17;80.80
19259;BME280;9763;48.780;9.212;2022-11-20T10:42:41;97981.72;;;11.07;81.62
19259;BME280;9763;48.780;9.212;2022-11-20T10:46:13;97971.59;;;11.02;82.30
19259;BME280;9763;48.780;9.212;2022-11-20T10:49:40;97975.41;;;10.98;81.90
19259;BME280;9763;48.780;9.212;2022-11-20T10:53:18;97973.31;;;10.91;81.73
19259;BME280;9763;48.780;9.212;2022-11-20T10:56:50;97970.66;;;10.79;81.56
19259;BME280;9763;48.780;9.212;2022-11-20T11:00:17;97947.44;;;10.64;82.16
19259;BME280;9763;48.780;9.212;2022-11-20T11:03:42;97957.69;;;10.67;82.11
19259;BME280;9763;48.780;9.212;2022-11-20T11:07:15;97953.06;;;10.70;83.07
19259;BME280;9763;48.780;9.212;2022-11-20T11:10:48;97955.13;;;10.78;83.32
19259;BME280;9763;48.780;9.212;2022-11-20T11:14:15;97963.47;;;10.83;83.36
19259;BME280;9763;48.780;9.212;2022-11-20T11:17:47;97953.22;;;10.80;82.95
19259;BME280;9763;48.780;9.212;2022-11-20T11:21:11;97950.50;;;10.81;82.98
19259;BME280;9763;48.780;9.212;2022-11-20T11:24:34;97900.47;;;10.64;83.26
19259;BME280;9763;48.780;9.212;2022-11-20T11:28:19;97930.72;;;10.90;83.56
19259;BME280;9763;48.780;9.212;2022-11-20T11:31:43;97917.16;;;11.09;84.24
19259;BME280;9763;48.780;9.212;2022-11-20T11:35:24;97915.84;;;11.26;84.85
19259;BME280;9763;48.780;9.212;2022-11-20T11:38:52;97910.88;;;11.23;83.96
19259;BME280;9763;48.780;9.212;2022-11-20T11:42:18;97903.00;;;11.11;83.25
19259;BME280;9763;48.780;9.212;2022-11-20T11:45:52;97895.13;;;11.00;82.95
19259;BME280;9763;48.780;9.212;2022-11-20T11:49:18;97890.50;;;10.93;83.19
19259;BME280;9763;48.780;9.212;2022-11-20T11:53:07;97897.84;;;10.88;83.22
19259;BME280;9763;48.780;9.212;2022-11-20T11:56:33;97880.88;;;10.82;83.54
19259;BME280;9763;48.780;9.212;2022-11-20T12:00:05;97878.03;;;10.85;84.15
19259;BME280;9763;48.780;9.212;2022-11-20T12:03:36;97877.19;;;10.85;83.92
19259;BME280;9763;48.780;9.212;2022-11-20T12:07:10;97876.13;;;10.87;84.85
19259;BME280;9763;48.780;9.212;2022-11-20T12:11:02;97883.00;;;10.88;84.14
19259;BME280;9763;48.780;9.212;2022-11-20T12:14:34;97872.81;;;10.85;84.38
19259;BME280;9763;48.780;9.212;2022-11-20T12:17:59;97877.19;;;10.85;84.01
19259;BME280;9763;48.780;9.212;2022-11-20T12:21:34;97873.50;;;10.87;84.36
19259;BME280;9763;48.780;9.212;2022-11-20T12:25:06;97860.13;;;10.92;84.88
19259;BME280;9763;48.780;9.212;2022-11-20T12:28:52;97858.72;;;10.99;85.54
19259;BME280;9763;48.780;9.212;2022-11-20T12:33:25;97867.78;;;11.28;85.67
19259;BME280;9763;48.780;9.212;2022-11-20T12:37:10;97846.75;;;11.30;85.60
19259;BME280;9763;48.780;9.212;2022-11-20T12:40:50;97848.66;;;11.28;84.47
19259;BME280;9763;48.780;9.212;2022-11-20T12:44:37;97859.59;;;11.22;83.40
19259;BME280;9763;48.780;9.212;2022-11-20T12:52:46;97851.75;;;11.33;85.00
19259;BME280;9763;48.780;9.212;2022-11-20T12:56:28;97847.25;;;11.35;83.77
19259;BME280;9763;48.780;9.212;2022-11-20T13:00:11;97839.38;;;11.24;84.09
19259;BME280;9763;48.780;9.212;2022-11-20T13:03:44;97850.53;;;11.26;82.87
19259;BME280;9763;48.780;9.212;2022-11-20T13:07:15;97843.91;;;11.22;82.12
19259;BME280;9763;48.780;9.212;2022-11-20T13:10:50;97838.19;;;11.16;83.09
19259;BME280;9763;48.780;9.212;2022-11-20T13:14:32;97850.94;;;11.32;83.96
19259;BME280;9763;48.780;9.212;2022-11-20T13:18:01;97849.25;;;11.42;84.51
19259;BME280;9763;48.780;9.212;2022-11-20T13:21:38;97852.47;;;11.46;84.02
19259;BME280;9763;48.780;9.212;2022-11-20T13:25:03;97840.59;;;11.42;82.20
19259;BME280;9763;48.780;9.212;2022-11-20T13:28:30;97841.53;;;11.41;82.62
19259;BME280;9763;48.780;9.212;2022-11-20T13:32:05;97831.81;;;11.43;82.46
19259;BME280;9763;48.780;9.212;2022-11-20T13:35:33;97832.41;;;11.46;83.88
19259;BME280;9763;48.780;9.212;2022-11-20T13:38:57;97837.03;;;11.54;83.66
19259;BME280;9763;48.780;9.212;2022-11-20T13:42:27;97840.13;;;11.59;83.85
19259;BME280;9763;48.780;9.212;2022-11-20T13:45:57;97828.13;;;11.57;82.84
19259;BME280;9763;48.780;9.212;2022-11-20T13:49:28;97829.19;;;11.54;82.87
19259;BME280;9763;48.780;9.212;2022-11-20T13:53:03;97836.53;;;11.60;83.07
19259;BME280;9763;48.780;9.212;2022-11-20T13:56:43;97832.75;;;11.75;83.46
19259;BME280;9763;48.780;9.212;2022-11-20T14:00:15;97831.19;;;11.84;81.81
19259;BME280;9763;48.780;9.212;2022-11-20T14:03:40;97833.22;;;11.92;79.08
19259;BME280;9763;48.780;9.212;2022-11-20T14:07:32;97837.47;;;11.93;81.52
19259;BME280;9763;48.780;9.212;2022-11-20T14:11:14;97798.41;;;11.80;82.45
19259;BME280;9763;48.780;9.212;2022-11-20T14:14:49;97819.53;;;11.88;80.83
19259;BME280;9763;48.780;9.212;2022-11-20T14:18:19;97823.31;;;11.73;80.96
19259;BME280;9763;48.780;9.212;2022-11-20T14:21:44;97816.34;;;11.62;80.59
19259;BME280;9763;48.780;9.212;2022-11-20T14:25:20;97822.19;;;11.54;81.05
19259;BME280;9763;48.780;9.212;2022-11-20T14:28:49;97814.34;;;11.43;81.22
19259;BME280;9763;48.780;9.212;2022-11-20T14:32:17;97829.31;;;11.41;80.71
19259;BME280;9763;48.780;9.212;2022-11-20T14:35:46;97824.19;;;11.40;81.99
19259;BME280;9763;48.780;9.212;2022-11-20T14:39:12;97829.91;;;11.45;82.06
19259;BME280;9763;48.780;9.212;2022-11-20T14:42:44;97820.97;;;11.47;81.48
19259;BME280;9763;48.780;9.212;2022-11-20T14:46:10;97818.25;;;11.49;81.39
19259;BME280;9763;48.780;9.212;2022-11-20T14:49:36;97818.75;;;11.43;81.04
19259;BME280;9763;48.780;9.212;2022-11-20T14:53:01;97807.09;;;11.36;80.87
19259;BME280;9763;48.780;9.212;2022-11-20T14:56:24;97804.13;;;11.29;81.09
19259;BME280;9763;48.780;9.212;2022-11-20T14:59:48;97794.84;;;11.25;81.02
19259;BME280;9763;48.780;9.212;2022-11-20T15:03:16;97778.34;;;11.13;81.38
19259;BME280;9763;48.780;9.212;2022-11-20T15:06:50;97784.41;;;11.14;81.01
19259;BME280;9763;48.780;9.212;2022-11-20T15:10:22;97786.19;;;11.13;81.16
19259;BME280;9763;48.780;9.212;2022-11-20T15:13:46;97783.00;;;11.10;81.40
19259;BME280;9763;48.780;9.212;2022-11-20T15:17:11;97779.78;;;11.06;81.25
19259;BME280;9763;48.780;9.212;2022-11-20T15:20:36;97781.91;;;11.01;80.80
19259;BME280;9763;48.780;9.212;2022-11-20T15:24:00;97769.34;;;10.95;81.15
19259;BME280;9763;48.780;9.212;2022-11-20T15:27:23;97774.06;;;10.90;80.75
19259;BME280;9763;48.780;9.212;2022-11-20T15:30:49;97766.84;;;10.82;80.26
19259;BME280;9763;48.780;9.212;2022-11-20T15:34:15;97784.50;;;10.79;80.79
19259;BME280;9763;48.780;9.212;2022-11-20T15:37:41;97779.88;;;10.71;80.73
19259;BME280;9763;48.780;9.212;2022-11-20T15:41:05;97782.00;;;10.66;80.95
19259;BME280;9763;48.780;9.212;2022-11-20T15:44:29;97781.28;;;10.64;81.08
19259;BME280;9763;48.780;9.212;2022-11-20T15:47:53;97765.88;;;10.61;80.60
19259;BME280;9763;48.780;9.212;2022-11-20T15:51:25;97761.81;;;10.57;80.27
19259;BME280;9763;48.780;9.212;2022-11-20T15:54:50;97768.31;;;10.52;80.90
19259;BME280;9763;48.780;9.212;2022-11-20T15:58:14;97760.75;;;10.49;80.21
19259;BME280;9763;48.780;9.212;2022-11-20T16:01:38;97761.78;;;10.46;79.90
19259;BME280;9763;48.780;9.212;2022-11-20T16:05:02;97756.69;;;10.44;80.02
19259;BME280;9763;48.780;9.212;2022-11-20T16:08:26;97750.75;;;10.42;80.72
19259;BME280;9763;48.780;9.212;2022-11-20T16:11:51;97755.97;;;10.42;79.92
19259;BME280;9763;48.780;9.212;2022-11-20T16:15:15;97753.47;;;10.41;80.03
19259;BME280;9763;48.780;9.212;2022-11-20T16:18:56;97749.34;;;10.38;80.72
19259;BME280;9763;48.780;9.212;2022-11-20T16:22:20;97747.78;;;10.36;80.00
19259;BME280;9763;48.780;9.212;2022-11-20T16:25:44;97751.69;;;10.41;80.90
19259;BME280;9763;48.780;9.212;2022-11-20T16:29:09;97752.31;;;10.45;80.26
19259;BME280;9763;48.780;9.212;2022-11-20T16:32:33;97748.53;;;10.49;80.35
19259;BME280;9763;48.780;9.212;2022-11-20T16:35:56;97737.63;;;10.55;80.55
19259;BME280;9763;48.780;9.212;2022-11-20T16:39:20;97735.38;;;10.62;80.93
19259;BME280;9763;48.780;9.212;2022-11-20T16:42:45;97736.78;;;10.66;81.62
19259;BME280;9763;48.780;9.212;2022-11-20T16:46:10;97710.94;;;10.63;80.90
19259;BME280;9763;48.780;9.212;2022-11-20T16:49:33;97729.34;;;10.72;81.45
19259;BME280;9763;48.780;9.212;2022-11-20T16:52:57;97728.84;;;10.78;81.24
19259;BME280;9763;48.780;9.212;2022-11-20T16:56:24;97713.91;;;10.80;80.41
19259;BME280;9763;48.780;9.212;2022-11-20T16:59:48;97726.03;;;10.81;81.32
19259;BME280;9763;48.780;9.212;2022-11-20T17:03:13;97716.41;;;10.82;80.79
19259;BME280;9763;48.780;9.212;2022-11-20T17:06:42;97718.78;;;10.85;81.11
19259;BME280;9763;48.780;9.212;2022-11-20T17:10:07;97710.97;;;10.85;81.13
19259;BME280;9763;48.780;9.212;2022-11-20T17:13:30;97706.56;;;10.86;81.24
19259;BME280;9763;48.780;9.212;2022-11-20T17:17:01;97710.97;;;10.85;80.82
19259;BME280;9763;48.780;9.212;2022-11-20T17:20:26;97714.53;;;10.84;81.26
19259;BME280;9763;48.780;9.212;2022-11-20T17:23:51;97683.44;;;10.70;80.77
19259;BME280;9763;48.780;9.212;2022-11-20T17:27:14;97707.53;;;10.85;80.78
19259;BME280;9763;48.780;9.212;2022-11-20T17:30:38;97703.97;;;10.86;81.39
19259;BME280;9763;48.780;9.212;2022-11-20T17:34:02;97698.59;;;10.87;81.40
19259;BME280;9763;48.780;9.212;2022-11-20T17:37:27;97690.09;;;10.85;80.62
19259;BME280;9763;48.780;9.212;2022-11-20T17:40:50;97683.19;;;10.84;81.24
19259;BME280;9763;48.780;9.212;2022-11-20T17:44:14;97693.63;;;10.84;81.40
19259;BME280;9763;48.780;9.212;2022-11-20T17:47:38;97676.44;;;10.81;81.19
19259;BME280;9763;48.780;9.212;2022-11-20T17:51:04;97672.97;;;10.81;80.70
19259;BME280;9763;48.780;9.212;2022-11-20T17:54:29;97678.22;;;10.81;81.17
19259;BME280;9763;48.780;9.212;2022-11-20T17:57:53;97671.22;;;10.81;81.12
19259;BME280;9763;48.780;9.212;2022-11-20T18:01:18;97671.22;;;10.81;81.47
19259;BME280;9763;48.780;9.212;2022-11-20T18:04:42;97661.72;;;10.80;80.99
19259;BME280;9763;48.780;9.212;2022-11-20T18:08:06;97658.16;;;10.81;80.70
19259;BME280;9763;48.780;9.212;2022-11-20T18:11:33;97650.44;;;10.80;80.92
19259;BME280;9763;48.780;9.212;2022-11-20T18:14:57;97652.22;;;10.79;80.97
19259;BME280;9763;48.780;9.212;2022-11-20T18:18:20;97661.72;;;10.80;81.15
19259;BME280;9763;48.780;9.212;2022-11-20T18:21:44;97651.16;;;10.82;80.88
19259;BME280;9763;48.780;9.212;2022-11-20T18:25:08;97647.72;;;10.81;81.14
19259;BME280;9763;48.780;9.212;2022-11-20T18:28:37;97645.09;;;10.81;80.94
19259;BME280;9763;48.780;9.212;2022-11-20T18:32:01;97630.75;;;10.76;81.27
19259;BME280;9763;48.780;9.212;2022-11-20T18:35:25;97630.88;;;10.74;81.42
19259;BME280;9763;48.780;9.212;2022-11-20T18:38:53;97625.41;;;10.77;81.78
19259;BME280;9763;48.780;9.212;2022-11-20T18:42:18;97611.31;;;10.69;81.37
19259;BME280;9763;48.780;9.212;2022-11-20T18:46:03;97616.84;;;10.75;81.35